createdAt,value
2023-07-03T00:00:40.568Z,99806.83
2023-07-03T00:03:30.522Z,99807.23
2023-07-03T00:06:01.927Z,99808.83
2023-07-03T00:08:33.135Z,99812.86
2023-07-03T00:11:07.224Z,99818.10
2023-07-03T00:13:37.073Z,99818.02
2023-07-03T00:16:15.090Z,99820.20
2023-07-03T00:18:45.005Z,99819.80
2023-07-03T00:21:18.010Z,99817.39
2023-07-03T00:24:07.523Z,99824.94
2023-07-03T00:26:39.091Z,99832.84
2023-07-03T00:29:11.453Z,99830.65
2023-07-03T00:31:40.616Z,99829.04
2023-07-03T00:34:11.882Z,99832.86
2023-07-03T00:36:45.536Z,99836.61
2023-07-03T00:39:18.900Z,99838.10
2023-07-03T00:41:51.071Z,99839.00
2023-07-03T00:44:28.072Z,99839.22
2023-07-03T00:47:06.883Z,99843.58
2023-07-03T00:49:36.435Z,99846.99
2023-07-03T00:52:12.305Z,99849.00
2023-07-03T00:54:49.858Z,99847.20
2023-07-03T00:57:24.054Z,99849.05
2023-07-03T00:59:55.270Z,99853.57
2023-07-03T01:02:36.949Z,99851.08
2023-07-03T01:05:19.719Z,99852.79
2023-07-03T01:07:59.430Z,99851.73
2023-07-03T01:10:38.462Z,99853.66
2023-07-03T01:13:14.322Z,99853.58
2023-07-03T01:15:55.032Z,99852.27
2023-07-03T01:18:26.696Z,99854.73
2023-07-03T01:21:07.929Z,99854.36
2023-07-03T01:23:45.265Z,99852.73
2023-07-03T01:26:22.421Z,99854.52
2023-07-03T01:28:58.864Z,99853.19
2023-07-03T01:31:43.272Z,99853.74
2023-07-03T01:34:17.750Z,99854.15
2023-07-03T01:36:49.226Z,99854.10
2023-07-03T01:39:29.619Z,99853.21
2023-07-03T01:42:04.127Z,99853.08
2023-07-03T01:44:36.094Z,99856.67
2023-07-03T01:47:29.807Z,99856.28
2023-07-03T01:49:59.044Z,99860.54
2023-07-03T01:52:35.471Z,99858.02
2023-07-03T01:55:13.184Z,99860.80
2023-07-03T01:57:59.539Z,99863.83
2023-07-03T02:00:33.993Z,99861.82
2023-07-03T02:03:11.942Z,99864.42
2023-07-03T02:05:48.652Z,99861.21
2023-07-03T02:08:20.385Z,99862.05
2023-07-03T02:10:54.995Z,99865.80
2023-07-03T02:13:26.035Z,99867.36
2023-07-03T02:15:56.885Z,99871.49
2023-07-03T02:18:28.583Z,99872.41
2023-07-03T02:21:01.101Z,99871.80
2023-07-03T02:23:35.290Z,99876.85
2023-07-03T02:26:06.031Z,99879.44
2023-07-03T02:28:35.533Z,99880.80
2023-07-03T02:31:05.173Z,99877.30
2023-07-03T02:33:46.312Z,99877.77
2023-07-03T02:36:25.981Z,99876.67
2023-07-03T02:39:16.758Z,99878.20
2023-07-03T02:41:45.968Z,99878.92
2023-07-03T02:44:21.569Z,99881.84
2023-07-03T02:46:54.758Z,99882.92
2023-07-03T02:49:29.401Z,99881.48
2023-07-03T02:52:11.229Z,99887.77
2023-07-03T02:54:45.976Z,99890.34
2023-07-03T02:57:30.596Z,99892.59
2023-07-03T03:00:03.699Z,99895.83
2023-07-03T03:02:46.618Z,99890.40
2023-07-03T03:05:15.967Z,99890.14
2023-07-03T03:07:51.110Z,99890.84
2023-07-03T03:10:21.412Z,99892.15
2023-07-03T03:12:55.466Z,99890.85
2023-07-03T03:15:24.446Z,99894.27
2023-07-03T03:17:55.954Z,99894.68
2023-07-03T03:20:33.191Z,99898.21
2023-07-03T03:23:03.996Z,99898.33
2023-07-03T03:25:33.825Z,99896.35
2023-07-03T03:28:10.116Z,99897.48
2023-07-03T03:30:41.518Z,99896.70
2023-07-03T03:33:15.078Z,99898.59
2023-07-03T03:35:46.789Z,99901.27
2023-07-03T03:38:22.902Z,99902.49
2023-07-03T03:41:04.457Z,99905.95
2023-07-03T03:43:36.146Z,99907.40
2023-07-03T03:46:09.180Z,99907.55
2023-07-03T03:48:38.267Z,99907.71
2023-07-03T03:51:09.840Z,99906.97
2023-07-03T03:56:29.845Z,99910.28
2023-07-03T03:59:07.660Z,99908.17
2023-07-03T04:01:37.500Z,99910.06
2023-07-03T04:04:12.208Z,99916.91
2023-07-03T04:06:41.160Z,99913.31
2023-07-03T04:09:12.241Z,99906.55
2023-07-03T04:11:43.747Z,99903.98
2023-07-03T04:14:16.273Z,99904.65
2023-07-03T04:16:47.523Z,99907.13
2023-07-03T04:19:23.970Z,99911.38
2023-07-03T04:21:54.993Z,99911.73
2023-07-03T04:24:25.336Z,99910.45
2023-07-03T04:27:00.646Z,99912.65
2023-07-03T04:29:48.322Z,99911.53
2023-07-03T04:32:17.289Z,99905.17
2023-07-03T04:34:51.296Z,99901.42
2023-07-03T04:37:30.057Z,99895.94
2023-07-03T04:40:09.154Z,99899.23
2023-07-03T04:42:42.907Z,99893.12
2023-07-03T04:45:16.509Z,99894.34
2023-07-03T04:47:50.482Z,99898.58
2023-07-03T04:50:36.610Z,99901.61
2023-07-03T04:53:09.549Z,99898.95
2023-07-03T04:55:39.119Z,99897.92
2023-07-03T04:58:11.325Z,99899.89
2023-07-03T05:00:41.308Z,99902.45
2023-07-03T05:03:13.150Z,99913.42
2023-07-03T05:05:42.945Z,99914.35
2023-07-03T05:08:11.851Z,99908.73
2023-07-03T05:10:43.763Z,99903.67
2023-07-03T05:13:12.941Z,99909.94
2023-07-03T05:15:43.338Z,99917.91
2023-07-03T05:18:12.711Z,99918.58
2023-07-03T05:20:43.667Z,99916.17
2023-07-03T05:23:15.998Z,99920.42
2023-07-03T05:29:17.865Z,99915.30
2023-07-03T05:31:48.380Z,99913.60
2023-07-03T05:34:17.422Z,99915.33
2023-07-03T05:36:49.047Z,99914.02
2023-07-03T05:39:18.220Z,99914.45
2023-07-03T05:41:50.169Z,99919.02
2023-07-03T05:44:26.616Z,99927.55
2023-07-03T05:46:58.727Z,99929.70
2023-07-03T05:49:30.411Z,99926.23
2023-07-03T05:51:59.621Z,99933.22
2023-07-03T05:54:30.815Z,99934.79
2023-07-03T05:57:18.956Z,99942.70
2023-07-03T05:59:56.406Z,99949.46
2023-07-03T06:02:36.520Z,99957.63
2023-07-03T06:05:07.166Z,99962.52
2023-07-03T06:07:37.330Z,99966.11
2023-07-03T06:10:11.829Z,99964.79
2023-07-03T06:12:43.246Z,99968.85
2023-07-03T06:15:13.123Z,99972.20
2023-07-03T06:17:46.571Z,99971.36
2023-07-03T06:20:19.088Z,99972.74
2023-07-03T06:22:50.674Z,99975.30
2023-07-03T06:25:19.690Z,99981.30
2023-07-03T06:27:54.111Z,99982.95
2023-07-03T06:30:25.400Z,99977.80
2023-07-03T06:33:00.208Z,99979.30
2023-07-03T06:35:29.399Z,99981.63
2023-07-03T06:38:01.497Z,99981.06
2023-07-03T06:40:30.759Z,99983.25
2023-07-03T06:43:01.233Z,99986.41
2023-07-03T06:45:35.010Z,99986.08
2023-07-03T06:48:04.744Z,99987.49
2023-07-03T06:50:37.581Z,99985.98
2023-07-03T06:53:06.691Z,99982.30
2023-07-03T06:55:35.407Z,99984.26
2023-07-03T06:58:04.341Z,99980.34
2023-07-03T07:00:33.510Z,99979.94
2023-07-03T07:03:03.031Z,99978.46
2023-07-03T07:05:32.242Z,99984.63
2023-07-03T07:08:04.357Z,99982.16
2023-07-03T07:10:38.311Z,99981.74
2023-07-03T07:13:12.945Z,99980.83
2023-07-03T07:15:42.642Z,99981.91
2023-07-03T07:18:14.668Z,99982.75
2023-07-03T07:20:46.107Z,99986.66
2023-07-03T07:23:19.362Z,99981.42
2023-07-03T07:25:58.911Z,99986.77
2023-07-03T07:28:34.916Z,99983.73
2023-07-03T07:31:04.783Z,99983.14
2023-07-03T07:33:34.088Z,99981.67
2023-07-03T07:36:03.166Z,99978.14
2023-07-03T07:38:32.133Z,99986.81
2023-07-03T07:41:04.385Z,99984.46
2023-07-03T07:43:36.796Z,99989.46
2023-07-03T07:46:06.301Z,99989.13
2023-07-03T07:48:35.123Z,99985.90
2023-07-03T07:51:10.007Z,99983.27
2023-07-03T07:53:40.008Z,99983.60
2023-07-03T07:56:10.310Z,99980.89
2023-07-03T07:58:39.611Z,99975.02
2023-07-03T08:01:11.700Z,99981.34
2023-07-03T08:03:41.559Z,99983.90
2023-07-03T08:06:16.199Z,99980.49
2023-07-03T08:08:45.193Z,99982.03
2023-07-03T08:11:20.747Z,99982.15
2023-07-03T08:13:51.810Z,99980.26
2023-07-03T08:16:25.927Z,99977.25
2023-07-03T08:19:00.794Z,99973.40
2023-07-03T08:21:30.032Z,99979.44
2023-07-03T08:23:59.410Z,99980.86
2023-07-03T08:26:31.071Z,99974.48
2023-07-03T08:29:00.179Z,99981.22
2023-07-03T08:31:34.354Z,99989.75
2023-07-03T08:34:03.354Z,99986.89
2023-07-03T08:39:04.871Z,99981.48
2023-07-03T08:41:41.681Z,99984.25
2023-07-03T08:44:11.281Z,99980.17
2023-07-03T08:46:44.023Z,99977.70
2023-07-03T08:49:18.331Z,99972.50
2023-07-03T08:51:54.384Z,99967.38
2023-07-03T08:54:28.360Z,99968.48
2023-07-03T08:56:58.781Z,99968.69
2023-07-03T08:59:29.893Z,99962.70
2023-07-03T09:02:13.255Z,99973.70
2023-07-03T09:05:01.847Z,99974.12
2023-07-03T09:07:37.994Z,99976.70
2023-07-03T09:10:14.038Z,99974.61
2023-07-03T09:12:47.814Z,99978.33
2023-07-03T09:15:27.587Z,99973.86
2023-07-03T09:18:02.705Z,99975.20
2023-07-03T09:20:33.632Z,99968.11
2023-07-03T09:23:11.299Z,99976.65
2023-07-03T09:25:45.990Z,99975.59
2023-07-03T09:28:16.089Z,99981.43
2023-07-03T09:30:45.112Z,99977.50
2023-07-03T09:33:18.052Z,99970.42
2023-07-03T09:35:48.132Z,99968.45
2023-07-03T09:38:25.118Z,99971.94
2023-07-03T09:40:59.559Z,99967.36
2023-07-03T09:43:34.597Z,99965.95
2023-07-03T09:46:10.927Z,99962.02
2023-07-03T09:48:40.136Z,99956.39
2023-07-03T09:51:25.257Z,99948.70
2023-07-03T09:53:57.855Z,99947.05
2023-07-03T09:56:29.980Z,99948.43
2023-07-03T09:59:02.856Z,99946.79
2023-07-03T10:06:51.881Z,99948.22
2023-07-03T10:12:10.930Z,99945.20
2023-07-03T10:14:49.444Z,99944.42
2023-07-03T10:17:36.753Z,99943.50
2023-07-03T10:20:11.601Z,99941.31
2023-07-03T10:22:44.988Z,99945.19
2023-07-03T10:25:22.828Z,99943.99
2023-07-03T10:28:06.823Z,99944.65
2023-07-03T10:30:44.564Z,99942.71
2023-07-03T10:33:20.307Z,99938.92
2023-07-03T10:35:51.824Z,99934.23
2023-07-03T10:38:34.497Z,99927.56
2023-07-03T10:41:08.188Z,99925.88
2023-07-03T10:43:47.130Z,99917.60
2023-07-03T10:46:26.481Z,99913.61
2023-07-03T10:49:01.181Z,99917.48
2023-07-03T10:51:41.120Z,99922.81
2023-07-03T10:54:15.963Z,99932.73
2023-07-03T10:56:58.026Z,99923.90
2023-07-03T10:59:42.140Z,99921.63
2023-07-03T11:02:30.137Z,99917.89
2023-07-03T11:05:11.131Z,99921.86
2023-07-03T11:07:48.566Z,99924.98
2023-07-03T11:10:25.238Z,99922.16
2023-07-03T11:12:59.592Z,99918.63
2023-07-03T11:15:42.202Z,99917.90
2023-07-03T11:23:55.073Z,99915.01
2023-07-03T11:29:10.170Z,99921.85
2023-07-03T11:31:43.132Z,99912.61
2023-07-03T11:40:37.070Z,99911.77
2023-07-03T11:43:34.955Z,99906.80
2023-07-03T11:46:11.204Z,99906.80
2023-07-03T11:48:56.526Z,99908.30
2023-07-03T11:51:38.347Z,99907.37
2023-07-03T11:54:22.126Z,99908.58
2023-07-03T11:57:12.034Z,99906.83
2023-07-03T11:59:50.290Z,99901.27
2023-07-03T12:03:05.934Z,99895.67
2023-07-03T12:06:01.938Z,99890.48
2023-07-03T12:08:48.127Z,99890.71
2023-07-03T12:11:27.627Z,99896.66
2023-07-03T12:13:59.622Z,99893.30
2023-07-03T12:16:34.350Z,99893.57
2023-07-03T12:19:13.143Z,99894.16
2023-07-03T12:21:46.056Z,99887.23
2023-07-03T12:24:28.147Z,99888.04
2023-07-03T12:27:05.749Z,99890.12
2023-07-03T12:29:37.382Z,99890.39
2023-07-03T12:32:14.091Z,99885.22
2023-07-03T12:34:59.450Z,99885.13
2023-07-03T12:37:32.431Z,99888.56
2023-07-03T12:40:02.067Z,99883.30
2023-07-03T12:42:35.135Z,99889.80
2023-07-03T12:45:15.212Z,99880.35
2023-07-03T12:47:45.416Z,99876.52
2023-07-03T12:50:22.193Z,99874.54
2023-07-03T12:53:04.332Z,99870.20
2023-07-03T12:55:36.072Z,99877.79
2023-07-03T12:58:07.581Z,99869.88
2023-07-03T13:00:37.474Z,99868.31
2023-07-03T13:03:13.480Z,99873.53
2023-07-03T13:05:45.021Z,99872.52
2023-07-03T13:08:16.315Z,99866.34
2023-07-03T13:10:59.435Z,99864.64
2023-07-03T13:13:28.638Z,99864.16
2023-07-03T13:15:57.791Z,99858.07
2023-07-03T13:18:28.291Z,99855.36
2023-07-03T13:21:00.764Z,99856.05
2023-07-03T13:23:30.989Z,99851.62
2023-07-03T13:26:01.304Z,99846.57
2023-07-03T13:28:34.777Z,99846.13
2023-07-03T13:31:12.350Z,99842.16
2023-07-03T13:33:45.341Z,99844.58
2023-07-03T13:36:25.478Z,99844.05
2023-07-03T13:39:03.107Z,99842.84
2023-07-03T13:41:37.571Z,99840.81
2023-07-03T13:44:09.042Z,99832.01
2023-07-03T13:46:40.031Z,99834.19
2023-07-03T13:49:12.887Z,99829.78
2023-07-03T13:51:46.771Z,99833.16
2023-07-03T13:54:17.340Z,99835.77
2023-07-03T13:56:47.390Z,99836.27
2023-07-03T13:59:17.390Z,99836.77
2023-07-03T14:01:46.834Z,99839.84
2023-07-03T14:04:15.795Z,99836.05
2023-07-03T14:06:46.298Z,99837.60
2023-07-03T14:09:19.064Z,99832.65
2023-07-03T14:11:50.704Z,99836.88
2023-07-03T14:14:24.022Z,99838.91
2023-07-03T14:16:54.185Z,99834.13
2023-07-03T14:19:25.442Z,99835.86
2023-07-03T14:21:57.248Z,99832.59
2023-07-03T14:24:27.103Z,99833.48
2023-07-03T14:26:59.022Z,99833.27
2023-07-03T14:29:31.011Z,99827.85
2023-07-03T14:32:09.867Z,99831.22
2023-07-03T14:34:38.621Z,99833.59
2023-07-03T14:37:14.927Z,99828.01
2023-07-03T14:39:54.851Z,99828.57
2023-07-03T14:42:23.693Z,99828.27
2023-07-03T14:44:54.932Z,99824.80
2023-07-03T14:47:24.036Z,99822.75
2023-07-03T14:49:54.097Z,99819.11
2023-07-03T14:52:25.358Z,99822.90
2023-07-03T14:54:59.921Z,99815.85
2023-07-03T14:57:31.354Z,99814.69
2023-07-03T15:00:00.291Z,99813.63
2023-07-03T15:02:37.549Z,99817.75
2023-07-03T15:05:06.193Z,99813.84
2023-07-03T15:07:37.319Z,99815.57
2023-07-03T15:10:11.911Z,99814.92
2023-07-03T15:12:42.313Z,99812.56
2023-07-03T15:15:11.869Z,99808.20
2023-07-03T15:17:52.157Z,99812.65
2023-07-03T15:20:24.715Z,99813.00
2023-07-03T15:23:06.155Z,99812.80
2023-07-03T15:25:46.466Z,99809.45
2023-07-03T15:28:18.982Z,99808.92
2023-07-03T15:30:49.841Z,99811.81
2023-07-03T15:33:24.197Z,99812.09
2023-07-03T15:36:00.467Z,99812.74
2023-07-03T15:38:29.458Z,99812.27
2023-07-03T15:41:00.135Z,99804.90
2023-07-03T15:43:33.981Z,99803.73
2023-07-03T15:46:09.001Z,99806.02
2023-07-03T15:48:38.323Z,99805.02
2023-07-03T15:51:09.361Z,99803.21
2023-07-03T15:53:39.841Z,99806.20
2023-07-03T15:56:12.800Z,99803.86
2023-07-03T15:58:57.653Z,99804.28
2023-07-03T16:01:29.529Z,99805.13
2023-07-03T16:04:01.242Z,99808.50
2023-07-03T16:06:35.524Z,99804.89
2023-07-03T16:09:08.477Z,99801.34
2023-07-03T16:11:40.126Z,99800.84
2023-07-03T16:14:08.858Z,99803.27
2023-07-03T16:16:37.530Z,99802.85
2023-07-03T16:19:06.336Z,99805.32
2023-07-03T16:21:36.897Z,99802.57
2023-07-03T16:24:07.730Z,99803.16
2023-07-03T16:26:39.553Z,99799.49
2023-07-03T16:29:18.376Z,99798.59
2023-07-03T16:31:48.122Z,99796.41
2023-07-03T16:34:16.760Z,99804.77
2023-07-03T16:36:45.750Z,99808.11
2023-07-03T16:39:14.787Z,99809.96
2023-07-03T16:41:43.702Z,99810.13
2023-07-03T16:44:15.379Z,99811.02
2023-07-03T16:46:47.405Z,99809.94
2023-07-03T16:49:16.317Z,99817.34
2023-07-03T16:51:45.092Z,99821.17
2023-07-03T16:54:14.849Z,99818.06
2023-07-03T16:56:43.927Z,99824.52
2023-07-03T16:59:15.231Z,99823.29
2023-07-03T17:01:44.376Z,99825.03
2023-07-03T17:04:15.366Z,99831.80
2023-07-03T17:06:44.538Z,99829.84
2023-07-03T17:09:14.822Z,99833.06
2023-07-03T17:12:11.050Z,99832.98
2023-07-03T17:14:41.583Z,99834.52
2023-07-03T17:17:14.196Z,99836.27
2023-07-03T17:19:54.161Z,99836.73
2023-07-03T17:22:23.482Z,99840.16
2023-07-03T17:25:03.122Z,99836.83
2023-07-03T17:27:32.265Z,99844.55
2023-07-03T17:30:01.048Z,99844.38
2023-07-03T17:32:37.671Z,99840.98
2023-07-03T17:35:07.495Z,99842.13
2023-07-03T17:37:39.520Z,99845.20
2023-07-03T17:40:13.138Z,99844.10
2023-07-03T17:42:42.054Z,99848.10
2023-07-03T17:45:11.966Z,99848.45
2023-07-03T17:47:42.245Z,99848.11
2023-07-03T17:50:14.726Z,99851.24
2023-07-03T17:52:43.652Z,99853.43
2023-07-03T17:55:19.609Z,99854.21
2023-07-03T17:57:49.950Z,99859.41
2023-07-03T18:00:19.644Z,99862.20
2023-07-03T18:02:49.806Z,99864.89
2023-07-03T18:05:19.350Z,99866.17
2023-07-03T18:07:48.538Z,99865.73
2023-07-03T18:10:22.474Z,99868.23
2023-07-03T18:12:51.364Z,99871.27
2023-07-03T18:15:47.990Z,99872.09
2023-07-03T18:18:33.114Z,99872.72
2023-07-03T18:21:03.600Z,99871.80
2023-07-03T18:23:34.973Z,99871.14
2023-07-03T18:26:03.970Z,99875.78
2023-07-03T18:28:38.748Z,99879.72
2023-07-03T18:31:10.604Z,99882.92
2023-07-03T18:33:45.232Z,99881.21
2023-07-03T18:36:15.948Z,99882.08
2023-07-03T18:38:48.839Z,99884.41
2023-07-03T18:41:22.437Z,99892.30
2023-07-03T18:43:51.282Z,99893.84
2023-07-03T18:46:20.158Z,99899.30
2023-07-03T18:48:48.916Z,99902.77
2023-07-03T18:51:22.216Z,99908.56
2023-07-03T18:54:03.343Z,99910.23
2023-07-03T18:56:34.624Z,99914.14
2023-07-03T18:59:03.687Z,99915.54
2023-07-03T19:01:37.875Z,99918.95
2023-07-03T19:04:07.269Z,99922.80
2023-07-03T19:06:39.739Z,99932.92
2023-07-03T19:09:11.553Z,99934.73
2023-07-03T19:11:45.857Z,99940.97
2023-07-03T19:14:17.152Z,99945.36
2023-07-03T19:16:46.160Z,99945.98
2023-07-03T19:19:18.002Z,99951.33
2023-07-03T19:21:49.396Z,99957.58
2023-07-03T19:24:18.267Z,99962.98
2023-07-03T19:26:47.135Z,99967.95
2023-07-03T19:29:16.844Z,99969.11
2023-07-03T19:31:47.178Z,99974.79
2023-07-03T19:34:15.805Z,99973.98
2023-07-03T19:36:44.658Z,99976.30
2023-07-03T19:39:15.428Z,99978.11
2023-07-03T19:41:45.185Z,99980.21
2023-07-03T19:44:17.491Z,99980.13
2023-07-03T19:46:46.400Z,99983.88
2023-07-03T19:49:17.792Z,99983.13
2023-07-03T19:51:48.659Z,99980.90
2023-07-03T19:54:18.316Z,99988.73
2023-07-03T19:56:49.544Z,99985.35
2023-07-03T19:59:18.478Z,99987.55
2023-07-03T20:01:47.231Z,99988.05
2023-07-03T20:04:16.527Z,99987.34
2023-07-03T20:06:45.576Z,99993.80
2023-07-03T20:09:23.410Z,99991.90
2023-07-03T20:11:51.314Z,99991.27
2023-07-03T20:14:25.471Z,99995.39
2023-07-03T20:17:06.901Z,99996.65
2023-07-03T20:19:36.970Z,99994.77
2023-07-03T20:22:11.509Z,100000.16
2023-07-03T20:24:40.223Z,100007.48
2023-07-03T20:27:11.684Z,100010.02
2023-07-03T20:29:58.832Z,100007.56
2023-07-03T20:32:55.749Z,100008.08
2023-07-03T20:35:25.470Z,100010.52
2023-07-03T20:38:02.445Z,100006.29
2023-07-03T20:40:31.311Z,100001.11
2023-07-03T20:43:01.429Z,100007.14
2023-07-03T20:45:32.677Z,100010.52
2023-07-03T20:48:01.425Z,100016.46
2023-07-03T20:50:31.254Z,100021.71
2023-07-03T20:53:10.451Z,100019.13
2023-07-03T20:55:44.208Z,100018.95
2023-07-03T20:58:19.322Z,100023.08
2023-07-03T21:00:48.414Z,100026.61
2023-07-03T21:03:21.082Z,100028.77
2023-07-03T21:05:51.098Z,100028.36
2023-07-03T21:08:22.596Z,100030.89
2023-07-03T21:10:58.209Z,100033.02
2023-07-03T21:13:27.259Z,100035.88
2023-07-03T21:15:56.567Z,100038.48
2023-07-03T21:18:26.666Z,100034.49
2023-07-03T21:20:58.661Z,100042.40
2023-07-03T21:23:30.817Z,100043.89
2023-07-03T21:26:02.402Z,100048.38
2023-07-03T21:28:31.270Z,100053.67
2023-07-03T21:31:00.804Z,100052.27
2023-07-03T21:33:30.257Z,100057.34
2023-07-03T21:36:07.882Z,100055.52
2023-07-03T21:38:36.737Z,100058.26
2023-07-03T21:41:16.614Z,100058.13
2023-07-03T21:43:53.834Z,100055.81
2023-07-03T21:46:24.321Z,100054.40
2023-07-03T21:48:56.401Z,100055.15
2023-07-03T21:51:28.571Z,100051.67
2023-07-03T21:53:57.998Z,100056.85
2023-07-03T21:56:28.328Z,100058.05
2023-07-03T21:58:59.691Z,100064.50
2023-07-03T22:01:31.102Z,100067.55
2023-07-03T22:04:01.184Z,100065.43
2023-07-03T22:06:30.208Z,100066.36
2023-07-03T22:08:59.908Z,100064.11
2023-07-03T22:11:30.013Z,100070.26
2023-07-03T22:13:58.976Z,100071.53
2023-07-03T22:16:33.129Z,100072.63
2023-07-03T22:19:01.995Z,100072.11
2023-07-03T22:21:32.308Z,100070.14
2023-07-03T22:24:01.291Z,100076.65
2023-07-03T22:26:30.051Z,100071.98
2023-07-03T22:28:58.948Z,100073.23
2023-07-03T22:31:27.963Z,100079.35
2023-07-03T22:33:57.308Z,100078.75
2023-07-03T22:36:26.015Z,100080.88
2023-07-03T22:38:57.998Z,100078.06
2023-07-03T22:41:26.851Z,100082.46
2023-07-03T22:43:58.504Z,100078.86
2023-07-03T22:46:28.665Z,100075.27
2023-07-03T22:48:58.570Z,100078.15
2023-07-03T22:51:32.200Z,100075.63
2023-07-03T22:54:02.966Z,100072.34
2023-07-03T22:56:33.900Z,100073.70
2023-07-03T22:59:04.488Z,100074.04
2023-07-03T23:01:44.285Z,100074.84
2023-07-03T23:04:14.165Z,100077.64
2023-07-03T23:06:46.520Z,100082.55
2023-07-03T23:09:17.009Z,100081.63
2023-07-03T23:11:47.220Z,100076.88
2023-07-03T23:14:16.060Z,100081.86
2023-07-03T23:16:51.303Z,100084.86
2023-07-03T23:19:23.922Z,100088.83
2023-07-03T23:22:07.784Z,100091.29
2023-07-03T23:24:40.349Z,100094.40
2023-07-03T23:27:11.184Z,100092.99
2023-07-03T23:29:41.525Z,100094.14
2023-07-03T23:32:18.453Z,100092.95
2023-07-03T23:34:50.794Z,100096.29
2023-07-03T23:37:23.266Z,100098.98
2023-07-03T23:39:52.199Z,100098.02
2023-07-03T23:42:28.105Z,100097.15
2023-07-03T23:44:56.820Z,100100.36
2023-07-03T23:47:33.372Z,100096.20
2023-07-03T23:50:03.712Z,100097.60
2023-07-03T23:52:35.139Z,100102.48
2023-07-03T23:55:05.334Z,100108.67
2023-07-03T23:57:36.629Z,100108.66
